Assembly Point, New York
Current Conditions -  °F | °C
As of 12:53 PM on Thursday 27 Nov 2014 (Local Time) from KGFL Reporting Station
Overcast Overcast  
Wind Chill: 22°   Ceiling: 2800
Heat Index: 30°   Visibility: 10mi
Dew Point: 24°   Wind: 8mph
Humidity: 79%   Direction: 80°E
Pressure: 30"   Gusts: NA
Location:  43.4218°N, 73.7084°W
Report Text: KGFL 271753Z AUTO 08007KT 10SM OVC028 M01/M04 A3000 RMK AO2 SLP168 T10111044 10000 21011 58006
Loading
Personal Weather Stations






























Interactive Weather Map New forecast layout! Learn more

10-Day Weather Forecast

Advertisements
Track Severe Weather on mobile